Sodus, NY (14551)

1:32 PM EDT on July 26, 2016 (GMT -0400)
Sodus,NY | | Change Station

Elev 489 ft 43.18 °N, 77.09 °W | Updated 1 second ago

Mostly Cloudy
Mostly Cloudy
79.9 °F
Feels Like 82 °F
N
1.8
Wind Variable Wind from NNW
Gusts 1.8 mph

Today
High -- | Low -- °F
--% Chance of Precip.
Yesterday
High -- | Low -- °F
Precip. -- in
Pressure 30.00 in
Visibility 10.0 miles
Clouds Few 3100 ft
Mostly Cloudy 4400 ft
Heat Index 82 °F
Dew Point 67 °F
Humidity 65%
Rainfall 0.00 in
Snow Depth Not available.
5:52 AM 8:35 PM
Waning Gibbous, 53% visible
METAR KROC 261654Z 31008G17KT 10SM FEW031 BKN044 26/17 A3000 RMK AO2 SLP157 T02610172
Pressure 30.00 in
Visibility 10.0 miles
Clouds Few 3100 ft
Mostly Cloudy 4400 ft
Heat Index 82 °F
Dew Point 67 °F
Humidity 65%
Rainfall 0.00 in
Snow Depth Not available.
5:52 AM 8:35 PM
Waning Gibbous, 53% visible
METAR KROC 261654Z 31008G17KT 10SM FEW031 BKN044 26/17 A3000 RMK AO2 SLP157 T02610172

10-Day Weather Forecast

Almanac

Astronomy

Jul. 26, 2016 Rise Set
Actual Time
Civil Twilight
Nautical Twilight
Astronomical Twilight
Moon
Length of Visible Light
Length of Day
Tomorrow will be .
, % of the Moon is Illuminated

Today's Extremes

State Highs State Lows

Community

WunderPhotos

Upload Photos

1,927,648 photos uploaded!

WunderBlog® & News

Nearby

Air Quality

  Air Quality AQ Index Pollutant
Not available.

Snow Depth

Station Depth Elevation

Earthquake Activity

City Distance Mag. Time & Date
Minimum magnitude displayed is 2.5.

Coastal Water Temperatures

Place Temperature

Stations

Nearby Weather Stations

Station Location Temp. Windchill Dew Point Humidity Wind Precip. Elev Updated Type
                   

Watches & Warnings

There are currently no watches in effect.